sensor_id;sensor_type;location;lat;lon;timestamp;P1;durP1;ratioP1;P2;durP2;ratioP2
14125;SDS011;7141;49.484;11.242;2022-11-15T00:01:36;11.97;;;7.67;;
14125;SDS011;7141;49.484;11.242;2022-11-15T00:04:03;12.03;;;7.50;;
14125;SDS011;7141;49.484;11.242;2022-11-15T00:06:29;12.63;;;7.73;;
14125;SDS011;7141;49.484;11.242;2022-11-15T00:08:57;11.90;;;7.17;;
14125;SDS011;7141;49.484;11.242;2022-11-15T00:11:23;11.73;;;7.57;;
14125;SDS011;7141;49.484;11.242;2022-11-15T00:13:49;13.20;;;7.50;;
14125;SDS011;7141;49.484;11.242;2022-11-15T00:16:15;11.37;;;7.47;;
14125;SDS011;7141;49.484;11.242;2022-11-15T00:18:41;12.63;;;7.63;;
14125;SDS011;7141;49.484;11.242;2022-11-15T00:21:09;11.60;;;7.00;;
14125;SDS011;7141;49.484;11.242;2022-11-15T00:23:35;11.80;;;8.13;;
14125;SDS011;7141;49.484;11.242;2022-11-15T00:26:02;12.37;;;8.10;;
14125;SDS011;7141;49.484;11.242;2022-11-15T00:28:28;12.37;;;8.60;;
14125;SDS011;7141;49.484;11.242;2022-11-15T00:30:59;13.03;;;8.53;;
14125;SDS011;7141;49.484;11.242;2022-11-15T00:33:25;14.03;;;8.00;;
14125;SDS011;7141;49.484;11.242;2022-11-15T00:35:51;12.57;;;8.47;;
14125;SDS011;7141;49.484;11.242;2022-11-15T00:38:17;14.63;;;7.87;;
14125;SDS011;7141;49.484;11.242;2022-11-15T00:40:43;13.77;;;8.73;;
14125;SDS011;7141;49.484;11.242;2022-11-15T00:43:09;13.07;;;8.00;;
14125;SDS011;7141;49.484;11.242;2022-11-15T00:45:35;14.83;;;9.33;;
14125;SDS011;7141;49.484;11.242;2022-11-15T00:48:01;13.67;;;8.50;;
14125;SDS011;7141;49.484;11.242;2022-11-15T00:50:27;18.87;;;9.63;;
14125;SDS011;7141;49.484;11.242;2022-11-15T00:52:53;13.67;;;8.13;;
14125;SDS011;7141;49.484;11.242;2022-11-15T00:55:19;13.90;;;8.07;;
14125;SDS011;7141;49.484;11.242;2022-11-15T00:57:45;17.93;;;8.63;;
14125;SDS011;7141;49.484;11.242;2022-11-15T01:00:11;12.23;;;8.10;;
14125;SDS011;7141;49.484;11.242;2022-11-15T01:02:37;11.23;;;7.83;;
14125;SDS011;7141;49.484;11.242;2022-11-15T01:05:04;15.00;;;9.03;;
14125;SDS011;7141;49.484;11.242;2022-11-15T01:07:30;16.27;;;10.27;;
14125;SDS011;7141;49.484;11.242;2022-11-15T01:09:56;15.53;;;9.90;;
14125;SDS011;7141;49.484;11.242;2022-11-15T01:12:22;13.77;;;8.17;;
14125;SDS011;7141;49.484;11.242;2022-11-15T01:14:49;12.23;;;8.53;;
14125;SDS011;7141;49.484;11.242;2022-11-15T01:17:14;13.33;;;8.90;;
14125;SDS011;7141;49.484;11.242;2022-11-15T01:19:40;13.47;;;7.70;;
14125;SDS011;7141;49.484;11.242;2022-11-15T01:22:06;13.57;;;8.30;;
14125;SDS011;7141;49.484;11.242;2022-11-15T01:24:32;13.07;;;8.30;;
14125;SDS011;7141;49.484;11.242;2022-11-15T01:26:58;15.10;;;8.93;;
14125;SDS011;7141;49.484;11.242;2022-11-15T01:29:24;13.17;;;8.23;;
14125;SDS011;7141;49.484;11.242;2022-11-15T01:31:52;16.60;;;9.03;;
14125;SDS011;7141;49.484;11.242;2022-11-15T01:34:18;13.50;;;8.30;;
14125;SDS011;7141;49.484;11.242;2022-11-15T01:36:44;12.60;;;7.10;;
14125;SDS011;7141;49.484;11.242;2022-11-15T01:39:10;10.40;;;7.27;;
14125;SDS011;7141;49.484;11.242;2022-11-15T01:41:36;11.77;;;7.50;;
14125;SDS011;7141;49.484;11.242;2022-11-15T01:46:47;11.67;;;7.20;;
14125;SDS011;7141;49.484;11.242;2022-11-15T01:49:17;10.03;;;7.37;;
14125;SDS011;7141;49.484;11.242;2022-11-15T01:51:44;11.57;;;7.47;;
14125;SDS011;7141;49.484;11.242;2022-11-15T01:54:12;11.43;;;6.97;;
14125;SDS011;7141;49.484;11.242;2022-11-15T01:56:43;13.07;;;7.07;;
14125;SDS011;7141;49.484;11.242;2022-11-15T01:59:12;10.87;;;7.23;;
14125;SDS011;7141;49.484;11.242;2022-11-15T02:01:38;10.73;;;7.83;;
14125;SDS011;7141;49.484;11.242;2022-11-15T02:06:36;11.17;;;7.00;;
14125;SDS011;7141;49.484;11.242;2022-11-15T02:09:02;14.47;;;7.50;;
14125;SDS011;7141;49.484;11.242;2022-11-15T02:11:28;11.27;;;7.03;;
14125;SDS011;7141;49.484;11.242;2022-11-15T02:13:54;10.80;;;6.83;;
14125;SDS011;7141;49.484;11.242;2022-11-15T02:18:55;8.70;;;6.47;;
14125;SDS011;7141;49.484;11.242;2022-11-15T02:24:06;13.00;;;6.77;;
14125;SDS011;7141;49.484;11.242;2022-11-15T02:26:59;9.13;;;6.33;;
14125;SDS011;7141;49.484;11.242;2022-11-15T02:32:03;9.37;;;5.73;;
14125;SDS011;7141;49.484;11.242;2022-11-15T02:37:34;9.73;;;6.27;;
14125;SDS011;7141;49.484;11.242;2022-11-15T02:40:20;9.03;;;6.60;;
14125;SDS011;7141;49.484;11.242;2022-11-15T02:42:50;8.83;;;5.70;;
14125;SDS011;7141;49.484;11.242;2022-11-15T02:45:39;11.73;;;6.17;;
14125;SDS011;7141;49.484;11.242;2022-11-15T02:48:05;8.47;;;5.67;;
14125;SDS011;7141;49.484;11.242;2022-11-15T02:50:33;8.07;;;5.37;;
14125;SDS011;7141;49.484;11.242;2022-11-15T02:52:59;9.27;;;6.03;;
14125;SDS011;7141;49.484;11.242;2022-11-15T02:55:27;12.13;;;6.33;;
14125;SDS011;7141;49.484;11.242;2022-11-15T02:58:06;8.30;;;5.37;;
14125;SDS011;7141;49.484;11.242;2022-11-15T03:00:40;17.80;;;6.50;;
14125;SDS011;7141;49.484;11.242;2022-11-15T03:08:31;9.10;;;5.80;;
14125;SDS011;7141;49.484;11.242;2022-11-15T03:11:13;10.70;;;5.73;;
14125;SDS011;7141;49.484;11.242;2022-11-15T03:13:56;11.90;;;6.70;;
14125;SDS011;7141;49.484;11.242;2022-11-15T03:18:51;10.93;;;5.93;;
14125;SDS011;7141;49.484;11.242;2022-11-15T03:21:18;11.60;;;5.97;;
14125;SDS011;7141;49.484;11.242;2022-11-15T03:23:45;9.20;;;5.63;;
14125;SDS011;7141;49.484;11.242;2022-11-15T03:26:13;9.37;;;6.20;;
14125;SDS011;7141;49.484;11.242;2022-11-15T03:28:48;9.80;;;6.33;;
14125;SDS011;7141;49.484;11.242;2022-11-15T03:31:17;8.67;;;5.97;;
14125;SDS011;7141;49.484;11.242;2022-11-15T03:34:03;10.87;;;6.20;;
14125;SDS011;7141;49.484;11.242;2022-11-15T03:36:30;10.27;;;5.93;;
14125;SDS011;7141;49.484;11.242;2022-11-15T03:39:00;11.00;;;6.10;;
14125;SDS011;7141;49.484;11.242;2022-11-15T03:42:11;6.83;;;5.43;;
14125;SDS011;7141;49.484;11.242;2022-11-15T03:47:00;10.23;;;7.00;;
14125;SDS011;7141;49.484;11.242;2022-11-15T03:49:29;10.87;;;5.97;;
14125;SDS011;7141;49.484;11.242;2022-11-15T03:51:57;10.47;;;5.93;;
14125;SDS011;7141;49.484;11.242;2022-11-15T03:54:24;10.20;;;6.67;;
14125;SDS011;7141;49.484;11.242;2022-11-15T03:56:50;8.80;;;5.83;;
14125;SDS011;7141;49.484;11.242;2022-11-15T03:59:16;9.00;;;5.97;;
14125;SDS011;7141;49.484;11.242;2022-11-15T04:01:42;9.10;;;6.47;;
14125;SDS011;7141;49.484;11.242;2022-11-15T04:04:08;12.70;;;7.00;;
14125;SDS011;7141;49.484;11.242;2022-11-15T04:06:34;9.97;;;6.43;;
14125;SDS011;7141;49.484;11.242;2022-11-15T04:09:00;10.00;;;5.80;;
14125;SDS011;7141;49.484;11.242;2022-11-15T04:11:26;10.57;;;6.63;;
14125;SDS011;7141;49.484;11.242;2022-11-15T04:13:52;9.73;;;6.53;;
14125;SDS011;7141;49.484;11.242;2022-11-15T04:16:18;11.93;;;6.37;;
14125;SDS011;7141;49.484;11.242;2022-11-15T04:18:43;8.77;;;6.13;;
14125;SDS011;7141;49.484;11.242;2022-11-15T04:21:09;11.00;;;7.33;;
14125;SDS011;7141;49.484;11.242;2022-11-15T04:23:54;10.77;;;6.37;;
14125;SDS011;7141;49.484;11.242;2022-11-15T04:26:32;10.73;;;6.87;;
14125;SDS011;7141;49.484;11.242;2022-11-15T04:28:58;8.53;;;6.30;;
14125;SDS011;7141;49.484;11.242;2022-11-15T04:31:43;11.67;;;6.83;;
14125;SDS011;7141;49.484;11.242;2022-11-15T04:34:09;11.37;;;6.40;;
14125;SDS011;7141;49.484;11.242;2022-11-15T04:36:35;10.47;;;7.43;;
14125;SDS011;7141;49.484;11.242;2022-11-15T04:39:19;12.50;;;7.40;;
14125;SDS011;7141;49.484;11.242;2022-11-15T04:41:45;11.13;;;7.17;;
14125;SDS011;7141;49.484;11.242;2022-11-15T04:44:11;10.87;;;7.23;;
14125;SDS011;7141;49.484;11.242;2022-11-15T04:46:37;8.93;;;6.90;;
14125;SDS011;7141;49.484;11.242;2022-11-15T04:49:03;9.40;;;6.23;;
14125;SDS011;7141;49.484;11.242;2022-11-15T04:51:29;11.10;;;6.93;;
14125;SDS011;7141;49.484;11.242;2022-11-15T04:53:55;9.43;;;6.30;;
14125;SDS011;7141;49.484;11.242;2022-11-15T04:56:21;9.93;;;6.50;;
14125;SDS011;7141;49.484;11.242;2022-11-15T04:58:50;11.87;;;7.03;;
14125;SDS011;7141;49.484;11.242;2022-11-15T05:01:16;12.87;;;7.00;;
14125;SDS011;7141;49.484;11.242;2022-11-15T05:03:43;14.13;;;7.67;;
14125;SDS011;7141;49.484;11.242;2022-11-15T05:06:28;11.93;;;6.87;;
14125;SDS011;7141;49.484;11.242;2022-11-15T05:08:54;11.07;;;6.67;;
14125;SDS011;7141;49.484;11.242;2022-11-15T05:11:21;10.33;;;6.73;;
14125;SDS011;7141;49.484;11.242;2022-11-15T05:13:47;10.07;;;6.33;;
14125;SDS011;7141;49.484;11.242;2022-11-15T05:16:13;12.90;;;7.30;;
14125;SDS011;7141;49.484;11.242;2022-11-15T05:18:39;11.27;;;7.13;;
14125;SDS011;7141;49.484;11.242;2022-11-15T05:21:09;13.40;;;7.27;;
14125;SDS011;7141;49.484;11.242;2022-11-15T05:23:35;10.50;;;7.43;;
14125;SDS011;7141;49.484;11.242;2022-11-15T05:26:02;11.93;;;7.63;;
14125;SDS011;7141;49.484;11.242;2022-11-15T05:28:29;21.50;;;10.93;;
14125;SDS011;7141;49.484;11.242;2022-11-15T05:33:27;14.80;;;8.10;;
14125;SDS011;7141;49.484;11.242;2022-11-15T05:36:04;12.87;;;8.10;;
14125;SDS011;7141;49.484;11.242;2022-11-15T05:38:31;11.53;;;7.20;;
14125;SDS011;7141;49.484;11.242;2022-11-15T05:40:57;15.13;;;8.93;;
14125;SDS011;7141;49.484;11.242;2022-11-15T05:43:23;16.13;;;9.63;;
14125;SDS011;7141;49.484;11.242;2022-11-15T05:45:49;15.33;;;10.10;;
14125;SDS011;7141;49.484;11.242;2022-11-15T05:48:15;14.30;;;9.43;;
14125;SDS011;7141;49.484;11.242;2022-11-15T05:50:42;12.77;;;8.47;;
14125;SDS011;7141;49.484;11.242;2022-11-15T05:53:09;10.27;;;7.10;;
14125;SDS011;7141;49.484;11.242;2022-11-15T05:55:37;15.03;;;7.93;;
14125;SDS011;7141;49.484;11.242;2022-11-15T05:58:03;13.23;;;8.37;;
14125;SDS011;7141;49.484;11.242;2022-11-15T06:00:29;13.90;;;8.50;;
14125;SDS011;7141;49.484;11.242;2022-11-15T06:02:55;15.13;;;10.37;;
14125;SDS011;7141;49.484;11.242;2022-11-15T06:05:21;14.60;;;10.27;;
14125;SDS011;7141;49.484;11.242;2022-11-15T06:07:47;10.97;;;7.60;;
14125;SDS011;7141;49.484;11.242;2022-11-15T06:10:13;11.93;;;8.50;;
14125;SDS011;7141;49.484;11.242;2022-11-15T06:12:39;12.53;;;7.57;;
14125;SDS011;7141;49.484;11.242;2022-11-15T06:15:05;13.10;;;7.47;;
14125;SDS011;7141;49.484;11.242;2022-11-15T06:17:31;16.23;;;8.50;;
14125;SDS011;7141;49.484;11.242;2022-11-15T06:19:57;11.93;;;7.80;;
14125;SDS011;7141;49.484;11.242;2022-11-15T06:22:23;13.27;;;8.53;;
14125;SDS011;7141;49.484;11.242;2022-11-15T06:24:49;13.57;;;8.90;;
14125;SDS011;7141;49.484;11.242;2022-11-15T06:27:15;13.80;;;8.50;;
14125;SDS011;7141;49.484;11.242;2022-11-15T06:29:41;16.27;;;10.20;;
14125;SDS011;7141;49.484;11.242;2022-11-15T06:32:07;13.43;;;9.73;;
14125;SDS011;7141;49.484;11.242;2022-11-15T06:34:33;14.33;;;8.30;;
14125;SDS011;7141;49.484;11.242;2022-11-15T06:37:00;13.70;;;8.63;;
14125;SDS011;7141;49.484;11.242;2022-11-15T06:39:26;14.37;;;8.13;;
14125;SDS011;7141;49.484;11.242;2022-11-15T06:41:52;11.80;;;7.60;;
14125;SDS011;7141;49.484;11.242;2022-11-15T06:44:18;48.77;;;19.80;;
14125;SDS011;7141;49.484;11.242;2022-11-15T06:46:44;15.53;;;10.47;;
14125;SDS011;7141;49.484;11.242;2022-11-15T06:49:10;17.40;;;10.97;;
14125;SDS011;7141;49.484;11.242;2022-11-15T06:51:36;22.37;;;14.90;;
14125;SDS011;7141;49.484;11.242;2022-11-15T06:54:02;15.10;;;9.97;;
14125;SDS011;7141;49.484;11.242;2022-11-15T06:56:28;16.10;;;9.67;;
14125;SDS011;7141;49.484;11.242;2022-11-15T06:58:55;10.30;;;7.40;;
14125;SDS011;7141;49.484;11.242;2022-11-15T07:01:21;13.47;;;7.63;;
14125;SDS011;7141;49.484;11.242;2022-11-15T07:03:47;15.57;;;9.30;;
14125;SDS011;7141;49.484;11.242;2022-11-15T07:06:13;11.80;;;8.13;;
14125;SDS011;7141;49.484;11.242;2022-11-15T07:08:39;13.53;;;9.37;;
14125;SDS011;7141;49.484;11.242;2022-11-15T07:11:06;13.60;;;8.37;;
14125;SDS011;7141;49.484;11.242;2022-11-15T07:13:33;12.60;;;8.90;;
14125;SDS011;7141;49.484;11.242;2022-11-15T07:16:06;19.47;;;10.83;;
14125;SDS011;7141;49.484;11.242;2022-11-15T07:18:33;15.87;;;9.63;;
14125;SDS011;7141;49.484;11.242;2022-11-15T07:21:00;14.10;;;9.10;;
14125;SDS011;7141;49.484;11.242;2022-11-15T07:23:26;12.47;;;8.93;;
14125;SDS011;7141;49.484;11.242;2022-11-15T07:25:52;14.30;;;9.33;;
14125;SDS011;7141;49.484;11.242;2022-11-15T07:28:18;13.90;;;10.10;;
14125;SDS011;7141;49.484;11.242;2022-11-15T07:30:44;18.80;;;9.30;;
14125;SDS011;7141;49.484;11.242;2022-11-15T07:33:10;14.33;;;9.13;;
14125;SDS011;7141;49.484;11.242;2022-11-15T07:35:36;14.43;;;9.70;;
14125;SDS011;7141;49.484;11.242;2022-11-15T07:38:02;21.27;;;13.47;;
14125;SDS011;7141;49.484;11.242;2022-11-15T07:40:29;20.17;;;10.43;;
14125;SDS011;7141;49.484;11.242;2022-11-15T07:43:03;14.43;;;9.50;;
14125;SDS011;7141;49.484;11.242;2022-11-15T07:45:30;19.80;;;10.90;;
14125;SDS011;7141;49.484;11.242;2022-11-15T07:47:56;20.43;;;11.73;;
14125;SDS011;7141;49.484;11.242;2022-11-15T07:50:22;16.90;;;10.27;;
14125;SDS011;7141;49.484;11.242;2022-11-15T07:52:58;15.20;;;9.43;;
14125;SDS011;7141;49.484;11.242;2022-11-15T07:55:25;14.40;;;9.13;;
14125;SDS011;7141;49.484;11.242;2022-11-15T07:57:52;13.63;;;8.87;;
14125;SDS011;7141;49.484;11.242;2022-11-15T08:00:18;15.20;;;9.50;;
14125;SDS011;7141;49.484;11.242;2022-11-15T08:02:44;13.43;;;8.77;;
14125;SDS011;7141;49.484;11.242;2022-11-15T08:05:10;15.37;;;9.57;;
14125;SDS011;7141;49.484;11.242;2022-11-15T08:07:36;11.97;;;9.30;;
14125;SDS011;7141;49.484;11.242;2022-11-15T08:10:03;13.07;;;9.03;;
14125;SDS011;7141;49.484;11.242;2022-11-15T08:12:30;15.60;;;9.97;;
14125;SDS011;7141;49.484;11.242;2022-11-15T08:14:57;16.27;;;10.80;;
14125;SDS011;7141;49.484;11.242;2022-11-15T08:17:23;14.57;;;10.23;;
14125;SDS011;7141;49.484;11.242;2022-11-15T08:19:49;16.77;;;10.60;;
14125;SDS011;7141;49.484;11.242;2022-11-15T08:22:15;16.33;;;9.30;;
14125;SDS011;7141;49.484;11.242;2022-11-15T08:24:41;12.00;;;9.00;;
14125;SDS011;7141;49.484;11.242;2022-11-15T08:27:07;11.83;;;8.87;;
14125;SDS011;7141;49.484;11.242;2022-11-15T08:29:40;11.77;;;8.23;;
14125;SDS011;7141;49.484;11.242;2022-11-15T08:32:06;13.03;;;8.23;;
14125;SDS011;7141;49.484;11.242;2022-11-15T08:34:32;13.77;;;8.50;;
14125;SDS011;7141;49.484;11.242;2022-11-15T08:36:58;18.23;;;8.73;;
14125;SDS011;7141;49.484;11.242;2022-11-15T08:39:24;16.57;;;9.30;;
14125;SDS011;7141;49.484;11.242;2022-11-15T08:41:50;14.00;;;8.40;;
14125;SDS011;7141;49.484;11.242;2022-11-15T08:44:16;17.07;;;8.73;;
14125;SDS011;7141;49.484;11.242;2022-11-15T08:46:44;11.47;;;7.47;;
14125;SDS011;7141;49.484;11.242;2022-11-15T08:49:10;15.30;;;8.40;;
14125;SDS011;7141;49.484;11.242;2022-11-15T08:51:36;11.20;;;7.87;;
14125;SDS011;7141;49.484;11.242;2022-11-15T08:54:02;19.50;;;8.47;;
14125;SDS011;7141;49.484;11.242;2022-11-15T08:56:28;12.80;;;8.03;;
14125;SDS011;7141;49.484;11.242;2022-11-15T08:58:54;11.77;;;8.33;;
14125;SDS011;7141;49.484;11.242;2022-11-15T09:01:20;13.03;;;8.67;;
14125;SDS011;7141;49.484;11.242;2022-11-15T09:03:47;9.47;;;7.70;;
14125;SDS011;7141;49.484;11.242;2022-11-15T09:06:13;10.30;;;7.20;;
14125;SDS011;7141;49.484;11.242;2022-11-15T09:08:39;8.07;;;5.93;;
14125;SDS011;7141;49.484;11.242;2022-11-15T09:11:06;8.93;;;6.17;;
14125;SDS011;7141;49.484;11.242;2022-11-15T09:13:32;10.17;;;6.60;;
14125;SDS011;7141;49.484;11.242;2022-11-15T09:15:59;8.83;;;6.63;;
14125;SDS011;7141;49.484;11.242;2022-11-15T09:18:25;9.83;;;6.70;;
14125;SDS011;7141;49.484;11.242;2022-11-15T09:20:54;9.10;;;6.70;;
14125;SDS011;7141;49.484;11.242;2022-11-15T09:23:21;9.33;;;6.60;;
14125;SDS011;7141;49.484;11.242;2022-11-15T09:25:47;8.60;;;6.73;;
14125;SDS011;7141;49.484;11.242;2022-11-15T09:28:13;11.10;;;6.53;;
14125;SDS011;7141;49.484;11.242;2022-11-15T09:30:39;8.93;;;6.90;;
14125;SDS011;7141;49.484;11.242;2022-11-15T09:33:09;8.60;;;6.00;;
14125;SDS011;7141;49.484;11.242;2022-11-15T09:35:35;7.93;;;6.10;;
14125;SDS011;7141;49.484;11.242;2022-11-15T09:38:01;8.17;;;5.73;;
14125;SDS011;7141;49.484;11.242;2022-11-15T09:40:27;9.07;;;6.60;;
14125;SDS011;7141;49.484;11.242;2022-11-15T09:50:59;7.30;;;5.70;;
14125;SDS011;7141;49.484;11.242;2022-11-15T09:53:11;7.63;;;5.80;;
14125;SDS011;7141;49.484;11.242;2022-11-15T09:55:40;8.57;;;6.40;;
14125;SDS011;7141;49.484;11.242;2022-11-15T09:58:14;8.40;;;5.83;;
14125;SDS011;7141;49.484;11.242;2022-11-15T10:00:43;7.53;;;5.30;;
14125;SDS011;7141;49.484;11.242;2022-11-15T10:03:14;6.83;;;5.37;;
14125;SDS011;7141;49.484;11.242;2022-11-15T10:05:41;6.93;;;4.60;;
14125;SDS011;7141;49.484;11.242;2022-11-15T10:08:14;6.80;;;3.97;;
14125;SDS011;7141;49.484;11.242;2022-11-15T10:10:51;5.53;;;3.53;;
14125;SDS011;7141;49.484;11.242;2022-11-15T10:15:50;4.80;;;3.40;;
14125;SDS011;7141;49.484;11.242;2022-11-15T10:18:23;4.50;;;3.27;;
14125;SDS011;7141;49.484;11.242;2022-11-15T10:20:58;5.20;;;3.57;;
14125;SDS011;7141;49.484;11.242;2022-11-15T10:23:24;3.90;;;3.20;;
14125;SDS011;7141;49.484;11.242;2022-11-15T10:25:51;3.53;;;3.20;;
14125;SDS011;7141;49.484;11.242;2022-11-15T10:28:22;4.33;;;3.87;;
14125;SDS011;7141;49.484;11.242;2022-11-15T10:30:58;4.53;;;3.70;;
14125;SDS011;7141;49.484;11.242;2022-11-15T10:33:32;10.93;;;3.47;;
14125;SDS011;7141;49.484;11.242;2022-11-15T10:38:49;3.73;;;3.03;;
14125;SDS011;7141;49.484;11.242;2022-11-15T10:41:39;3.20;;;2.90;;
14125;SDS011;7141;49.484;11.242;2022-11-15T10:46:33;4.03;;;2.97;;
14125;SDS011;7141;49.484;11.242;2022-11-15T10:49:13;4.13;;;3.23;;
14125;SDS011;7141;49.484;11.242;2022-11-15T10:51:41;4.50;;;2.93;;
14125;SDS011;7141;49.484;11.242;2022-11-15T10:54:07;5.23;;;2.60;;
14125;SDS011;7141;49.484;11.242;2022-11-15T10:56:36;4.00;;;3.30;;
14125;SDS011;7141;49.484;11.242;2022-11-15T10:59:02;4.73;;;2.83;;
14125;SDS011;7141;49.484;11.242;2022-11-15T11:01:28;5.80;;;3.47;;
14125;SDS011;7141;49.484;11.242;2022-11-15T11:03:58;3.20;;;2.87;;
14125;SDS011;7141;49.484;11.242;2022-11-15T11:06:25;3.63;;;2.93;;
14125;SDS011;7141;49.484;11.242;2022-11-15T11:09:01;5.53;;;3.07;;
14125;SDS011;7141;49.484;11.242;2022-11-15T11:11:43;3.40;;;2.20;;
14125;SDS011;7141;49.484;11.242;2022-11-15T11:14:17;2.97;;;2.63;;
14125;SDS011;7141;49.484;11.242;2022-11-15T11:22:11;7.10;;;2.60;;
14125;SDS011;7141;49.484;11.242;2022-11-15T11:24:42;3.37;;;2.47;;
14125;SDS011;7141;49.484;11.242;2022-11-15T11:37:30;2.57;;;2.23;;
14125;SDS011;7141;49.484;11.242;2022-11-15T11:40:05;3.60;;;2.40;;
14125;SDS011;7141;49.484;11.242;2022-11-15T11:42:45;3.20;;;2.37;;
14125;SDS011;7141;49.484;11.242;2022-11-15T11:45:34;3.70;;;2.40;;
14125;SDS011;7141;49.484;11.242;2022-11-15T11:50:35;2.23;;;2.00;;
14125;SDS011;7141;49.484;11.242;2022-11-15T11:53:04;4.23;;;2.30;;
14125;SDS011;7141;49.484;11.242;2022-11-15T11:55:36;8.17;;;2.47;;
14125;SDS011;7141;49.484;11.242;2022-11-15T11:58:12;3.20;;;2.10;;
14125;SDS011;7141;49.484;11.242;2022-11-15T12:00:41;2.60;;;2.10;;
14125;SDS011;7141;49.484;11.242;2022-11-15T12:03:09;2.97;;;2.53;;
14125;SDS011;7141;49.484;11.242;2022-11-15T12:05:50;2.97;;;2.40;;
14125;SDS011;7141;49.484;11.242;2022-11-15T12:08:35;3.37;;;2.10;;
14125;SDS011;7141;49.484;11.242;2022-11-15T12:11:07;3.50;;;2.30;;
14125;SDS011;7141;49.484;11.242;2022-11-15T12:13:34;4.03;;;2.50;;
14125;SDS011;7141;49.484;11.242;2022-11-15T12:16:21;3.20;;;2.27;;
14125;SDS011;7141;49.484;11.242;2022-11-15T12:18:49;3.90;;;2.00;;
14125;SDS011;7141;49.484;11.242;2022-11-15T12:21:31;3.10;;;2.17;;
14125;SDS011;7141;49.484;11.242;2022-11-15T12:24:02;3.67;;;2.10;;
14125;SDS011;7141;49.484;11.242;2022-11-15T12:27:15;2.50;;;2.00;;
14125;SDS011;7141;49.484;11.242;2022-11-15T12:29:16;2.57;;;2.07;;
14125;SDS011;7141;49.484;11.242;2022-11-15T12:31:45;2.97;;;2.10;;
14125;SDS011;7141;49.484;11.242;2022-11-15T12:36:45;2.80;;;2.30;;
14125;SDS011;7141;49.484;11.242;2022-11-15T12:39:12;3.10;;;2.10;;
14125;SDS011;7141;49.484;11.242;2022-11-15T13:02:20;4.93;;;1.80;;
14125;SDS011;7141;49.484;11.242;2022-11-15T13:04:47;2.97;;;2.50;;
14125;SDS011;7141;49.484;11.242;2022-11-15T13:17:45;3.60;;;2.50;;
14125;SDS011;7141;49.484;11.242;2022-11-15T13:28:10;4.80;;;2.30;;
14125;SDS011;7141;49.484;11.242;2022-11-15T13:30:36;2.93;;;2.30;;
14125;SDS011;7141;49.484;11.242;2022-11-15T13:33:23;3.77;;;2.83;;
14125;SDS011;7141;49.484;11.242;2022-11-15T13:35:50;2.93;;;2.07;;
14125;SDS011;7141;49.484;11.242;2022-11-15T13:38:28;3.50;;;2.00;;
14125;SDS011;7141;49.484;11.242;2022-11-15T13:40:54;3.97;;;2.07;;
14125;SDS011;7141;49.484;11.242;2022-11-15T13:48:32;3.57;;;2.03;;
14125;SDS011;7141;49.484;11.242;2022-11-15T13:50:59;2.63;;;2.07;;
14125;SDS011;7141;49.484;11.242;2022-11-15T13:53:25;3.63;;;2.27;;
14125;SDS011;7141;49.484;11.242;2022-11-15T13:55:51;4.47;;;1.97;;
14125;SDS011;7141;49.484;11.242;2022-11-15T13:58:19;4.20;;;2.50;;
14125;SDS011;7141;49.484;11.242;2022-11-15T14:00:45;7.40;;;3.33;;
14125;SDS011;7141;49.484;11.242;2022-11-15T14:03:19;5.07;;;2.30;;
14125;SDS011;7141;49.484;11.242;2022-11-15T14:06:01;5.03;;;2.60;;
14125;SDS011;7141;49.484;11.242;2022-11-15T14:08:27;3.20;;;2.33;;
14125;SDS011;7141;49.484;11.242;2022-11-15T14:13:38;4.10;;;2.97;;
14125;SDS011;7141;49.484;11.242;2022-11-15T14:16:15;4.60;;;2.60;;
14125;SDS011;7141;49.484;11.242;2022-11-15T14:18:42;2.40;;;1.90;;
14125;SDS011;7141;49.484;11.242;2022-11-15T14:21:09;3.50;;;1.90;;
14125;SDS011;7141;49.484;11.242;2022-11-15T14:23:35;4.07;;;2.33;;
14125;SDS011;7141;49.484;11.242;2022-11-15T14:26:01;3.90;;;2.40;;
14125;SDS011;7141;49.484;11.242;2022-11-15T14:28:31;5.83;;;2.97;;
14125;SDS011;7141;49.484;11.242;2022-11-15T14:30:58;2.77;;;2.23;;
14125;SDS011;7141;49.484;11.242;2022-11-15T14:33:29;5.27;;;2.33;;
14125;SDS011;7141;49.484;11.242;2022-11-15T14:35:56;4.27;;;2.20;;
14125;SDS011;7141;49.484;11.242;2022-11-15T14:38:22;2.77;;;2.27;;
14125;SDS011;7141;49.484;11.242;2022-11-15T14:40:49;4.43;;;2.60;;
14125;SDS011;7141;49.484;11.242;2022-11-15T14:43:15;5.10;;;3.10;;
14125;SDS011;7141;49.484;11.242;2022-11-15T14:45:41;11.73;;;4.13;;
14125;SDS011;7141;49.484;11.242;2022-11-15T14:48:07;14.27;;;5.17;;
14125;SDS011;7141;49.484;11.242;2022-11-15T14:50:33;10.93;;;4.67;;
14125;SDS011;7141;49.484;11.242;2022-11-15T14:52:59;14.10;;;4.80;;
14125;SDS011;7141;49.484;11.242;2022-11-15T14:55:27;9.97;;;4.33;;
14125;SDS011;7141;49.484;11.242;2022-11-15T14:57:53;7.83;;;3.60;;
14125;SDS011;7141;49.484;11.242;2022-11-15T15:00:20;8.53;;;3.60;;
14125;SDS011;7141;49.484;11.242;2022-11-15T15:02:46;8.23;;;3.80;;
14125;SDS011;7141;49.484;11.242;2022-11-15T15:05:13;6.53;;;3.10;;
14125;SDS011;7141;49.484;11.242;2022-11-15T15:07:39;7.53;;;3.23;;
14125;SDS011;7141;49.484;11.242;2022-11-15T15:10:05;8.00;;;4.03;;
14125;SDS011;7141;49.484;11.242;2022-11-15T15:12:31;11.27;;;4.57;;
14125;SDS011;7141;49.484;11.242;2022-11-15T15:14:57;9.00;;;4.07;;
14125;SDS011;7141;49.484;11.242;2022-11-15T15:17:23;6.97;;;4.73;;
14125;SDS011;7141;49.484;11.242;2022-11-15T15:19:49;11.93;;;5.10;;
14125;SDS011;7141;49.484;11.242;2022-11-15T15:22:16;16.83;;;7.80;;
14125;SDS011;7141;49.484;11.242;2022-11-15T15:24:45;13.73;;;6.63;;
14125;SDS011;7141;49.484;11.242;2022-11-15T15:27:12;15.80;;;7.13;;
14125;SDS011;7141;49.484;11.242;2022-11-15T15:29:38;14.70;;;6.70;;
14125;SDS011;7141;49.484;11.242;2022-11-15T15:32:04;14.37;;;6.97;;
14125;SDS011;7141;49.484;11.242;2022-11-15T15:34:31;11.40;;;6.93;;
14125;SDS011;7141;49.484;11.242;2022-11-15T15:39:41;11.77;;;6.83;;
14125;SDS011;7141;49.484;11.242;2022-11-15T15:42:07;21.20;;;10.70;;
14125;SDS011;7141;49.484;11.242;2022-11-15T15:44:33;29.97;;;12.83;;
14125;SDS011;7141;49.484;11.242;2022-11-15T15:46:59;33.50;;;13.83;;
14125;SDS011;7141;49.484;11.242;2022-11-15T15:49:25;31.67;;;14.87;;
14125;SDS011;7141;49.484;11.242;2022-11-15T15:51:51;32.13;;;14.57;;
14125;SDS011;7141;49.484;11.242;2022-11-15T15:54:17;25.60;;;11.77;;
14125;SDS011;7141;49.484;11.242;2022-11-15T15:56:43;23.30;;;10.33;;
14125;SDS011;7141;49.484;11.242;2022-11-15T15:59:09;18.20;;;9.37;;
14125;SDS011;7141;49.484;11.242;2022-11-15T16:01:35;29.03;;;9.87;;
14125;SDS011;7141;49.484;11.242;2022-11-15T16:04:01;38.60;;;19.80;;
14125;SDS011;7141;49.484;11.242;2022-11-15T16:06:40;50.20;;;25.13;;
14125;SDS011;7141;49.484;11.242;2022-11-15T16:09:16;20.50;;;12.80;;
14125;SDS011;7141;49.484;11.242;2022-11-15T16:11:43;26.00;;;12.57;;
14125;SDS011;7141;49.484;11.242;2022-11-15T16:14:10;25.80;;;13.30;;
14125;SDS011;7141;49.484;11.242;2022-11-15T16:16:36;19.70;;;11.03;;
14125;SDS011;7141;49.484;11.242;2022-11-15T16:19:02;19.00;;;11.60;;
14125;SDS011;7141;49.484;11.242;2022-11-15T16:21:28;19.33;;;10.63;;
14125;SDS011;7141;49.484;11.242;2022-11-15T16:23:54;15.13;;;10.07;;
14125;SDS011;7141;49.484;11.242;2022-11-15T16:26:21;20.90;;;11.23;;
14125;SDS011;7141;49.484;11.242;2022-11-15T16:28:49;24.47;;;13.87;;
14125;SDS011;7141;49.484;11.242;2022-11-15T16:31:15;19.70;;;11.93;;
14125;SDS011;7141;49.484;11.242;2022-11-15T16:33:43;20.33;;;11.27;;
14125;SDS011;7141;49.484;11.242;2022-11-15T16:38:45;21.83;;;11.70;;
14125;SDS011;7141;49.484;11.242;2022-11-15T16:41:11;22.93;;;11.17;;
14125;SDS011;7141;49.484;11.242;2022-11-15T16:43:37;16.47;;;9.40;;